Jrs Mira — V2FS4 — position and weather

sailwx.info

Track history (hours):
 
Tides and Currents Weather Stations Pressure Air Temp Water Temp Dewpoint Dewpoint Depression Visibility Wind Speed Wind Dir Waves Ship Positions

Jrs Mira

Last reported at 2015-Jun-27 10:25 UTC. Time now 2015-Jul-05 21:04 UTC.
Position N 31°26' E 032°15'.
Warning: this ship's position is 8 days out of date.

Length 107 m; draft 8.2 m.

Type: Cargo ship. MMSI: 305780000.

Date/timePositionNaut miles runAvg speedWind from/ knotsBaromVisibWave heightAir tempDewpointWater temp
2015-Jun-27 10:25N 31°26' E 032°15'4510.4
2015-Jun-27 06:04N 31°60' E 031°40'1810.5
2015-Jun-27 04:19N 32°06' E 031°19'1110.1
2015-Jun-27 03:12N 32°09' E 031°07'710.1
2015-Jun-27 02:33N 32°11' E 030°59'1110.0
2015-Jun-27 01:26N 32°14' E 030°47'1110.1
2015-Jun-27 00:21N 32°18' E 030°34'810.1
2015-Jun-26 23:31N 32°20' E 030°25'1210.0
2015-Jun-26 22:17N 32°24' E 030°11'1810.0
2015-Jun-26 20:26N 32°29' E 029°50'9 9.9
2015-Jun-26 19:31N 32°31' E 029°39'36510.4
2015-Jun-25 08:22N 34°22' E 022°43'8110.3
2015-Jun-25 00:33N 34°46' E 021°10'13810.6
2015-Jun-24 11:28N 35°28' E 018°29'1110.9
2015-Jun-24 10:26N 35°32' E 018°16'1110.9
2015-Jun-24 09:25N 35°35' E 018°03'2010.8
2015-Jun-24 07:32N 35°41' E 017°39'1111.5
2015-Jun-24 06:33N 35°45' E 017°26'1311.0
2015-Jun-24 05:24N 35°49' E 017°11'9 9.9
2015-Jun-24 04:30N 35°51' E 017°00'9 9.8
2015-Jun-24 03:33N 35°54' E 016°49'1010.2
2015-Jun-24 02:32N 35°57' E 016°37'1010.5
2015-Jun-24 01:33N 35°60' E 016°25'4410.3
2015-Jun-23 21:15N 36°13' E 015°33'710.4
2015-Jun-23 20:33N 36°15' E 015°24'1010.1
2015-Jun-23 19:33N 36°20' E 015°13'510.2
2015-Jun-23 19:06N 36°22' E 015°08'24910.6
2015-Jun-22 19:32N 37°33' E 010°09'1110.8
2015-Jun-22 18:33N 37°32' E 009°55'1110.9
2015-Jun-22 17:33N 37°29' E 009°42'1110.7
2015-Jun-22 16:33N 37°27' E 009°29'1110.5
2015-Jun-22 15:33N 37°25' E 009°16'1010.4
2015-Jun-22 14:33N 37°22' E 009°03'1410.4
2015-Jun-22 13:10N 37°19' E 008°46'810.7
2015-Jun-22 12:27N 37°18' E 008°36'27610.2
2015-Jun-21 09:28N 37°04' E 002°50'9610.6
2015-Jun-21 00:26N 36°47' E 000°51'910.7
2015-Jun-20 23:33N 36°46' E 000°40'1110.4
2015-Jun-20 22:29N 36°43' E 000°26'1310.3
2015-Jun-20 21:13N 36°42' E 000°10'2810.3
2015-Jun-20 18:30N 36°36' W 000°24'1010.2
2015-Jun-20 17:33N 36°35' W 000°36'1010.1
2015-Jun-20 16:33N 36°33' W 000°48'1010.0
2015-Jun-20 15:33N 36°32' W 001°00'1010.2
2015-Jun-20 14:33N 36°30' W 001°13'1010.4
2015-Jun-20 13:33N 36°28' W 001°26'1010.4
2015-Jun-20 12:33N 36°26' W 001°38'3010.2
2015-Jun-20 09:33N 36°21' W 002°16'1110.9
2015-Jun-20 08:31N 36°19' W 002°30'1411.5
2015-Jun-20 07:20N 36°17' W 002°46'810.5
2015-Jun-20 06:33N 36°15' W 002°56'1110.6
2015-Jun-20 05:32N 36°13' W 003°10'10211.4
2015-Jun-19 20:33N 35°57' W 005°15'5 5.0
2015-Jun-19 19:31N 35°54' W 005°19'0 0.0
2015-Jun-19 18:31N 35°54' W 005°19'0 0.0
2015-Jun-19 17:28N 35°54' W 005°19'0 0.0
2015-Jun-19 16:31N 35°54' W 005°19'0 0.2
2015-Jun-19 15:33N 35°54' W 005°19'1 1.0
2015-Jun-19 14:32N 35°55' W 005°20'0 0.1
2015-Jun-19 13:32N 35°55' W 005°20'0 0.1
2015-Jun-19 12:32N 35°55' W 005°20'0 0.0
2015-Jun-19 11:32N 35°55' W 005°20'0 0.0
2015-Jun-19 10:32N 35°55' W 005°20'0 0.0
2015-Jun-19 09:32N 35°55' W 005°20'4 4.2
2015-Jun-19 08:34N 35°57' W 005°24'147 9.2
2015-Jun-18 16:32N 36°21' W 008°23'28 9.3
2015-Jun-18 13:33N 36°28' W 008°57'56 9.3
2015-Jun-18 07:30N 37°12' W 009°41'1010.8
2015-Jun-18 06:33N 37°22' W 009°45'1010.4
2015-Jun-18 05:33N 37°32' W 009°47'10 9.9
2015-Jun-18 04:33N 37°42' W 009°50'1010.4
2015-Jun-18 03:34N 37°52' W 009°53'1010.0
2015-Jun-18 02:33N 38°02' W 009°56'1010.0
2015-Jun-18 01:34N 38°11' W 009°59'10 9.9
2015-Jun-18 00:34N 38°21' W 010°02'1010.0
2015-Jun-17 23:33N 38°31' W 010°04'1010.1
2015-Jun-17 22:33N 38°41' W 010°07'1010.1
2015-Jun-17 21:33N 38°51' W 010°08'1010.2
2015-Jun-17 20:33N 39°01' W 010°08'1010.4
2015-Jun-17 19:33N 39°11' W 010°06'1010.2
2015-Jun-17 18:33N 39°21' W 010°08'1010.0
2015-Jun-17 17:33N 39°31' W 010°07'1010.0
2015-Jun-17 16:34N 39°41' W 010°07'1010.1
2015-Jun-17 15:33N 39°52' W 010°08'1010.2
2015-Jun-17 14:32N 40°02' W 010°08'1010.0
2015-Jun-17 13:33N 40°12' W 010°07'1010.1
2015-Jun-17 12:33N 40°22' W 010°07'  
Track history (hours):
 
Tides and Currents Weather Stations Pressure Air Temp Water Temp Dewpoint Dewpoint Depression Visibility Wind Speed Wind Dir Waves Ship Positions

Jrs Mira

Last reported at 2015-Jun-27 10:25 UTC. Time now 2015-Jul-05 21:04 UTC.
Position N 31°26' E 032°15'.
Warning: this ship's position is 8 days out of date.

Length 107 m; draft 8.2 m.

Type: Cargo ship. MMSI: 305780000.

Date/timePositionNaut miles runAvg speedWind from/ knotsBaromVisibWave heightAir tempDewpointWater temp
2015-Jun-27 10:25N 31°26' E 032°15'4510.4
2015-Jun-27 06:04N 31°60' E 031°40'1810.5
2015-Jun-27 04:19N 32°06' E 031°19'1110.1
2015-Jun-27 03:12N 32°09' E 031°07'710.1
2015-Jun-27 02:33N 32°11' E 030°59'1110.0
2015-Jun-27 01:26N 32°14' E 030°47'1110.1
2015-Jun-27 00:21N 32°18' E 030°34'810.1
2015-Jun-26 23:31N 32°20' E 030°25'1210.0
2015-Jun-26 22:17N 32°24' E 030°11'1810.0
2015-Jun-26 20:26N 32°29' E 029°50'9 9.9
2015-Jun-26 19:31N 32°31' E 029°39'36510.4
2015-Jun-25 08:22N 34°22' E 022°43'8110.3
2015-Jun-25 00:33N 34°46' E 021°10'13810.6
2015-Jun-24 11:28N 35°28' E 018°29'1110.9
2015-Jun-24 10:26N 35°32' E 018°16'1110.9
2015-Jun-24 09:25N 35°35' E 018°03'2010.8
2015-Jun-24 07:32N 35°41' E 017°39'1111.5
2015-Jun-24 06:33N 35°45' E 017°26'1311.0
2015-Jun-24 05:24N 35°49' E 017°11'9 9.9
2015-Jun-24 04:30N 35°51' E 017°00'9 9.8
2015-Jun-24 03:33N 35°54' E 016°49'1010.2
2015-Jun-24 02:32N 35°57' E 016°37'1010.5
2015-Jun-24 01:33N 35°60' E 016°25'4410.3
2015-Jun-23 21:15N 36°13' E 015°33'710.4
2015-Jun-23 20:33N 36°15' E 015°24'1010.1
2015-Jun-23 19:33N 36°20' E 015°13'510.2
2015-Jun-23 19:06N 36°22' E 015°08'24910.6
2015-Jun-22 19:32N 37°33' E 010°09'1110.8
2015-Jun-22 18:33N 37°32' E 009°55'1110.9
2015-Jun-22 17:33N 37°29' E 009°42'1110.7
2015-Jun-22 16:33N 37°27' E 009°29'1110.5
2015-Jun-22 15:33N 37°25' E 009°16'1010.4
2015-Jun-22 14:33N 37°22' E 009°03'1410.4
2015-Jun-22 13:10N 37°19' E 008°46'810.7
2015-Jun-22 12:27N 37°18' E 008°36'27610.2
2015-Jun-21 09:28N 37°04' E 002°50'9610.6
2015-Jun-21 00:26N 36°47' E 000°51'910.7
2015-Jun-20 23:33N 36°46' E 000°40'1110.4
2015-Jun-20 22:29N 36°43' E 000°26'1310.3
2015-Jun-20 21:13N 36°42' E 000°10'2810.3
2015-Jun-20 18:30N 36°36' W 000°24'1010.2
2015-Jun-20 17:33N 36°35' W 000°36'1010.1
2015-Jun-20 16:33N 36°33' W 000°48'1010.0
2015-Jun-20 15:33N 36°32' W 001°00'1010.2
2015-Jun-20 14:33N 36°30' W 001°13'1010.4
2015-Jun-20 13:33N 36°28' W 001°26'1010.4
2015-Jun-20 12:33N 36°26' W 001°38'3010.2
2015-Jun-20 09:33N 36°21' W 002°16'1110.9
2015-Jun-20 08:31N 36°19' W 002°30'1411.5
2015-Jun-20 07:20N 36°17' W 002°46'810.5
2015-Jun-20 06:33N 36°15' W 002°56'1110.6
2015-Jun-20 05:32N 36°13' W 003°10'10211.4
2015-Jun-19 20:33N 35°57' W 005°15'5 5.0
2015-Jun-19 19:31N 35°54' W 005°19'0 0.0
2015-Jun-19 18:31N 35°54' W 005°19'0 0.0
2015-Jun-19 17:28N 35°54' W 005°19'0 0.0
2015-Jun-19 16:31N 35°54' W 005°19'0 0.2
2015-Jun-19 15:33N 35°54' W 005°19'1 1.0
2015-Jun-19 14:32N 35°55' W 005°20'0 0.1
2015-Jun-19 13:32N 35°55' W 005°20'0 0.1
2015-Jun-19 12:32N 35°55' W 005°20'0 0.0
2015-Jun-19 11:32N 35°55' W 005°20'0 0.0
2015-Jun-19 10:32N 35°55' W 005°20'0 0.0
2015-Jun-19 09:32N 35°55' W 005°20'4 4.2
2015-Jun-19 08:34N 35°57' W 005°24'147 9.2
2015-Jun-18 16:32N 36°21' W 008°23'28 9.3
2015-Jun-18 13:33N 36°28' W 008°57'56 9.3
2015-Jun-18 07:30N 37°12' W 009°41'1010.8
2015-Jun-18 06:33N 37°22' W 009°45'1010.4
2015-Jun-18 05:33N 37°32' W 009°47'10 9.9
2015-Jun-18 04:33N 37°42' W 009°50'1010.4
2015-Jun-18 03:34N 37°52' W 009°53'1010.0
2015-Jun-18 02:33N 38°02' W 009°56'1010.0
2015-Jun-18 01:34N 38°11' W 009°59'10 9.9
2015-Jun-18 00:34N 38°21' W 010°02'1010.0
2015-Jun-17 23:33N 38°31' W 010°04'1010.1
2015-Jun-17 22:33N 38°41' W 010°07'1010.1
2015-Jun-17 21:33N 38°51' W 010°08'1010.2
2015-Jun-17 20:33N 39°01' W 010°08'1010.4
2015-Jun-17 19:33N 39°11' W 010°06'1010.2
2015-Jun-17 18:33N 39°21' W 010°08'1010.0
2015-Jun-17 17:33N 39°31' W 010°07'1010.0
2015-Jun-17 16:34N 39°41' W 010°07'1010.1
2015-Jun-17 15:33N 39°52' W 010°08'1010.2
2015-Jun-17 14:32N 40°02' W 010°08'1010.0
2015-Jun-17 13:33N 40°12' W 010°07'1010.1
2015-Jun-17 12:33N 40°22' W 010°07'  

Dump ship's entire track history